createdAt,value
2019-03-09T00:01:13.831Z,16.25
2019-03-09T00:02:48.116Z,14.93
2019-03-09T00:04:22.967Z,15.00
2019-03-09T00:05:57.274Z,14.93
2019-03-09T00:07:31.544Z,14.33
2019-03-09T00:09:07.594Z,16.17
2019-03-09T00:10:42.151Z,15.88
2019-03-09T00:12:16.348Z,14.35
2019-03-09T00:13:50.546Z,14.80
2019-03-09T00:15:24.811Z,15.68
2019-03-09T00:16:59.414Z,15.88
2019-03-09T00:18:33.684Z,15.68
2019-03-09T00:20:09.090Z,15.98
2019-03-09T00:21:43.317Z,17.52
2019-03-09T00:23:28.518Z,15.40
2019-03-09T00:25:04.357Z,15.28
2019-03-09T00:26:40.232Z,15.58
2019-03-09T00:28:16.501Z,15.93
2019-03-09T00:29:52.802Z,17.60
2019-03-09T00:31:34.683Z,19.37
2019-03-09T00:33:08.888Z,20.10
2019-03-09T00:34:43.178Z,20.72
2019-03-09T00:36:17.852Z,22.32
2019-03-09T00:37:53.673Z,18.75
2019-03-09T00:39:28.309Z,21.37
2019-03-09T00:41:02.694Z,20.92
2019-03-09T00:42:37.196Z,20.72
2019-03-09T00:44:11.474Z,19.00
2019-03-09T00:45:45.826Z,16.05
2019-03-09T00:47:19.837Z,15.23
2019-03-09T00:48:54.485Z,15.45
2019-03-09T00:50:28.778Z,14.30
2019-03-09T00:52:03.200Z,15.48
2019-03-09T00:53:37.416Z,15.45
2019-03-09T00:55:13.465Z,14.90
2019-03-09T00:56:47.687Z,15.15
2019-03-09T00:58:21.946Z,14.93
2019-03-09T00:59:57.468Z,14.18
2019-03-09T01:01:32.050Z,15.03
2019-03-09T01:03:06.345Z,15.88
2019-03-09T01:04:40.564Z,14.10
2019-03-09T01:06:14.829Z,14.45
2019-03-09T01:07:49.490Z,13.22
2019-03-09T01:09:23.803Z,13.40
2019-03-09T01:10:58.098Z,14.03
2019-03-09T01:12:32.390Z,14.70
2019-03-09T01:14:07.252Z,13.95
2019-03-09T01:15:40.930Z,13.93
2019-03-09T01:17:15.162Z,14.18
2019-03-09T01:18:49.481Z,13.35
2019-03-09T01:20:24.397Z,13.53
2019-03-09T01:21:58.731Z,14.23
2019-03-09T01:23:33.070Z,13.50
2019-03-09T01:25:11.450Z,14.13
2019-03-09T01:26:46.022Z,14.80
2019-03-09T01:28:20.325Z,16.73
2019-03-09T01:29:54.510Z,15.10
2019-03-09T01:31:28.741Z,15.58
2019-03-09T01:33:04.713Z,15.03
2019-03-09T01:34:38.923Z,16.48
2019-03-09T01:36:13.186Z,16.65
2019-03-09T01:37:47.387Z,15.58
2019-03-09T01:39:30.922Z,16.57
2019-03-09T01:41:05.175Z,16.07
2019-03-09T01:42:39.430Z,15.20
2019-03-09T01:44:13.160Z,16.97
2019-03-09T01:45:48.027Z,14.85
2019-03-09T01:47:22.292Z,15.40
2019-03-09T01:48:56.570Z,16.05
2019-03-09T01:50:30.788Z,17.32
2019-03-09T01:52:05.557Z,19.20
2019-03-09T01:53:39.234Z,16.63
2019-03-09T01:55:14.231Z,17.48
2019-03-09T01:56:48.493Z,18.15
2019-03-09T01:58:23.135Z,15.18
2019-03-09T01:59:57.887Z,17.00
2019-03-09T02:01:32.451Z,13.93
2019-03-09T02:03:06.757Z,13.05
2019-03-09T02:04:41.478Z,13.72
2019-03-09T02:06:15.748Z,13.18
2019-03-09T02:07:49.987Z,13.80
2019-03-09T02:09:24.307Z,12.82
2019-03-09T02:10:59.026Z,13.80
2019-03-09T02:12:33.342Z,14.23
2019-03-09T02:14:07.546Z,14.23
2019-03-09T02:15:42.534Z,13.68
2019-03-09T02:17:17.308Z,15.05
2019-03-09T02:18:51.520Z,13.93
2019-03-09T02:20:25.225Z,16.27
2019-03-09T02:21:59.510Z,15.35
2019-03-09T02:23:34.142Z,15.13
2019-03-09T02:25:09.633Z,14.47
2019-03-09T02:26:43.990Z,15.03
2019-03-09T02:28:18.345Z,16.12
2019-03-09T02:29:53.227Z,15.15
2019-03-09T02:31:27.991Z,15.93
2019-03-09T02:33:02.623Z,17.37
2019-03-09T02:34:36.887Z,15.28
2019-03-09T02:36:13.243Z,15.83
2019-03-09T02:37:47.477Z,16.97
2019-03-09T02:39:26.497Z,14.93
2019-03-09T02:41:00.783Z,15.43
2019-03-09T02:42:35.285Z,17.57
2019-03-09T02:44:09.577Z,19.57
2019-03-09T02:45:43.877Z,20.23
2019-03-09T02:47:18.693Z,21.10
2019-03-09T02:48:53.344Z,21.60
2019-03-09T02:50:27.617Z,21.73
2019-03-09T02:52:01.830Z,20.50
2019-03-09T02:53:36.205Z,21.75
2019-03-09T02:55:14.797Z,20.15
2019-03-09T02:56:49.017Z,17.48
2019-03-09T02:58:23.406Z,16.80
2019-03-09T02:59:57.774Z,14.38
2019-03-09T03:01:39.438Z,14.75
2019-03-09T03:03:13.904Z,15.15
2019-03-09T03:04:49.045Z,14.55
2019-03-09T03:06:23.274Z,13.98
2019-03-09T03:07:57.981Z,16.27
2019-03-09T03:09:32.231Z,14.93
2019-03-09T03:11:06.500Z,16.07
2019-03-09T03:12:40.682Z,25.95
2019-03-09T03:14:15.226Z,25.62
2019-03-09T03:15:49.547Z,27.27
2019-03-09T03:17:23.759Z,25.23
2019-03-09T03:18:58.283Z,19.42
2019-03-09T03:20:32.778Z,18.35
2019-03-09T03:22:07.056Z,16.12
2019-03-09T03:23:41.313Z,16.17
2019-03-09T03:25:15.602Z,16.80
2019-03-09T03:26:50.102Z,16.50
2019-03-09T03:28:24.359Z,15.83
2019-03-09T03:29:58.634Z,15.58
2019-03-09T03:31:32.850Z,15.28
2019-03-09T03:33:07.558Z,15.72
2019-03-09T03:34:41.800Z,14.75
2019-03-09T03:36:16.030Z,14.18
2019-03-09T03:37:50.326Z,14.50
2019-03-09T03:39:24.813Z,14.55
2019-03-09T03:40:58.531Z,14.73
2019-03-09T03:42:32.726Z,15.72
2019-03-09T03:44:07.045Z,15.15
2019-03-09T03:45:41.752Z,16.20
2019-03-09T03:47:16.058Z,15.05
2019-03-09T03:48:50.305Z,13.50
2019-03-09T03:50:24.583Z,13.75
2019-03-09T03:51:59.098Z,13.72
2019-03-09T03:53:33.401Z,12.78
2019-03-09T03:55:09.645Z,14.25
2019-03-09T03:56:43.855Z,13.70
2019-03-09T03:58:19.415Z,14.98
2019-03-09T03:59:53.693Z,15.00
2019-03-09T04:01:27.895Z,16.15
2019-03-09T04:03:02.208Z,15.35
2019-03-09T04:04:37.230Z,15.20
2019-03-09T04:06:11.912Z,14.93
2019-03-09T04:07:46.192Z,15.75
2019-03-09T04:09:20.821Z,15.25
2019-03-09T04:10:55.454Z,15.55
2019-03-09T04:12:30.178Z,15.72
2019-03-09T04:14:04.565Z,14.60
2019-03-09T04:15:38.940Z,15.35
2019-03-09T04:17:13.486Z,16.42
2019-03-09T04:18:47.784Z,15.85
2019-03-09T04:20:22.400Z,15.48
2019-03-09T04:21:56.660Z,14.75
2019-03-09T04:23:31.251Z,16.82
2019-03-09T04:25:07.036Z,16.50
2019-03-09T04:26:41.319Z,17.32
2019-03-09T04:28:15.006Z,17.63
2019-03-09T04:29:49.386Z,18.67
2019-03-09T04:31:23.118Z,17.77
2019-03-09T04:32:56.827Z,18.97
2019-03-09T04:34:31.324Z,19.23
2019-03-09T04:36:05.932Z,19.95
2019-03-09T04:37:40.304Z,19.35
2019-03-09T04:39:13.922Z,20.00
2019-03-09T04:40:48.245Z,21.10
2019-03-09T04:42:23.113Z,19.17
2019-03-09T04:43:57.460Z,19.15
2019-03-09T04:45:31.674Z,27.10
2019-03-09T04:47:05.848Z,32.98
2019-03-09T04:48:40.419Z,31.57
2019-03-09T04:50:15.336Z,31.05
2019-03-09T04:51:50.496Z,30.12
2019-03-09T04:53:24.750Z,31.23
2019-03-09T04:54:58.709Z,29.80
2019-03-09T04:56:32.934Z,28.42
2019-03-09T04:58:07.275Z,32.65
2019-03-09T04:59:41.483Z,29.63
2019-03-09T05:01:16.374Z,27.35
2019-03-09T05:02:50.600Z,28.50
2019-03-09T05:04:33.202Z,28.07
2019-03-09T05:06:07.518Z,50.78
2019-03-09T05:07:47.670Z,33.75
2019-03-09T05:09:41.524Z,35.90
2019-03-09T05:11:15.841Z,35.35
2019-03-09T05:12:53.506Z,33.38
2019-03-09T05:14:27.825Z,33.88
2019-03-09T05:16:02.091Z,33.02
2019-03-09T05:17:36.329Z,38.60
2019-03-09T05:19:10.949Z,27.62
2019-03-09T05:20:45.259Z,23.67
2019-03-09T05:22:19.516Z,24.65
2019-03-09T05:23:54.166Z,23.42
2019-03-09T05:25:28.712Z,23.42
2019-03-09T05:27:02.934Z,24.15
2019-03-09T05:28:37.199Z,22.95
2019-03-09T05:30:40.472Z,21.60
2019-03-09T05:32:14.152Z,21.47
2019-03-09T05:33:48.404Z,23.35
2019-03-09T05:35:22.642Z,21.55
2019-03-09T05:36:57.142Z,18.82
2019-03-09T05:38:30.905Z,18.93
2019-03-09T05:40:07.224Z,16.30
2019-03-09T05:41:41.501Z,16.05
2019-03-09T05:43:16.300Z,16.12
2019-03-09T05:44:50.487Z,14.78
2019-03-09T05:46:24.708Z,15.03
2019-03-09T05:47:58.921Z,15.88
2019-03-09T05:49:33.688Z,16.23
2019-03-09T05:51:07.888Z,15.88
2019-03-09T05:52:42.106Z,14.47
2019-03-09T05:54:16.315Z,14.55
2019-03-09T05:55:51.128Z,14.87
2019-03-09T05:57:25.345Z,14.87
2019-03-09T05:58:59.643Z,15.75
2019-03-09T06:00:35.052Z,17.98
2019-03-09T06:02:09.891Z,20.68
2019-03-09T06:03:44.134Z,19.30
2019-03-09T06:05:30.017Z,25.08
2019-03-09T06:07:04.237Z,35.73
2019-03-09T06:08:38.827Z,24.15
2019-03-09T06:10:13.127Z,20.95
2019-03-09T06:11:48.186Z,22.27
2019-03-09T06:13:22.444Z,20.32
2019-03-09T06:14:56.995Z,17.92
2019-03-09T06:16:31.236Z,18.55
2019-03-09T06:18:06.434Z,20.70
2019-03-09T06:19:40.944Z,22.45
2019-03-09T06:21:15.592Z,34.67
2019-03-09T06:22:49.908Z,33.53
2019-03-09T06:24:24.154Z,30.55
2019-03-09T06:25:58.365Z,28.70
2019-03-09T06:27:33.013Z,28.35
2019-03-09T06:29:07.289Z,32.78
2019-03-09T06:30:41.584Z,22.73
2019-03-09T06:32:34.310Z,25.10
2019-03-09T06:34:08.588Z,21.20
2019-03-09T06:35:42.908Z,25.12
2019-03-09T06:37:20.266Z,26.57
2019-03-09T06:39:00.301Z,25.20
2019-03-09T06:40:34.515Z,22.42
2019-03-09T06:42:20.508Z,21.52
2019-03-09T06:43:55.146Z,22.95
2019-03-09T06:45:29.743Z,21.17
2019-03-09T06:47:03.953Z,19.87
2019-03-09T06:48:38.305Z,17.07
2019-03-09T06:50:14.652Z,17.80
2019-03-09T06:51:49.249Z,17.05
2019-03-09T06:53:23.710Z,15.85
2019-03-09T06:54:57.961Z,15.88
2019-03-09T06:56:32.276Z,17.50
2019-03-09T06:58:06.823Z,14.98
2019-03-09T06:59:41.373Z,15.60
2019-03-09T07:01:18.909Z,15.15
2019-03-09T07:02:53.206Z,15.68
2019-03-09T07:04:27.832Z,17.80
2019-03-09T07:06:02.085Z,16.90
2019-03-09T07:07:36.375Z,17.98
2019-03-09T07:09:10.588Z,17.27
2019-03-09T07:10:45.065Z,17.52
2019-03-09T07:12:19.315Z,17.10
2019-03-09T07:13:53.610Z,17.32
2019-03-09T07:15:30.110Z,18.45
2019-03-09T07:17:04.766Z,19.35
2019-03-09T07:18:40.614Z,18.95
2019-03-09T07:20:14.822Z,19.25
2019-03-09T07:21:49.060Z,18.40
2019-03-09T07:23:23.892Z,19.05
2019-03-09T07:24:58.218Z,23.22
2019-03-09T07:26:32.502Z,28.25
2019-03-09T07:28:14.430Z,28.30
2019-03-09T07:29:49.121Z,27.10
2019-03-09T07:31:23.415Z,30.72
2019-03-09T07:32:57.762Z,32.00
2019-03-09T07:34:32.090Z,29.10
2019-03-09T07:36:06.663Z,27.40
2019-03-09T07:37:40.860Z,27.22
2019-03-09T07:39:15.163Z,24.92
2019-03-09T07:40:49.492Z,27.95
2019-03-09T07:42:24.205Z,24.40
2019-03-09T07:43:58.493Z,22.77
2019-03-09T07:45:32.746Z,23.77
2019-03-09T07:47:06.992Z,24.85
2019-03-09T07:48:41.649Z,25.72
2019-03-09T07:50:17.509Z,22.13
2019-03-09T07:51:52.941Z,21.00
2019-03-09T07:53:27.221Z,41.10
2019-03-09T07:55:01.870Z,38.92
2019-03-09T07:56:37.648Z,35.65
2019-03-09T07:58:11.887Z,35.33
2019-03-09T07:59:46.118Z,32.00
2019-03-09T08:01:20.835Z,29.60
2019-03-09T08:02:55.202Z,22.77
2019-03-09T08:04:29.526Z,20.62
2019-03-09T08:06:03.740Z,19.90
2019-03-09T08:07:38.390Z,21.82
2019-03-09T08:09:12.852Z,18.82
2019-03-09T08:10:47.120Z,22.30
2019-03-09T08:12:21.408Z,21.33
2019-03-09T08:13:55.858Z,23.02
2019-03-09T08:15:30.108Z,20.05
2019-03-09T08:17:05.015Z,19.48
2019-03-09T08:18:39.272Z,20.17
2019-03-09T08:20:16.255Z,11.78
2019-03-09T08:21:50.553Z,12.18
2019-03-09T08:23:24.792Z,12.58
2019-03-09T08:24:59.075Z,13.15
2019-03-09T08:26:33.522Z,12.78
2019-03-09T08:28:07.809Z,12.78
2019-03-09T08:29:42.054Z,13.05
2019-03-09T08:31:16.289Z,13.83
2019-03-09T08:32:50.783Z,14.00
2019-03-09T08:34:25.113Z,16.95
2019-03-09T08:36:00.426Z,14.85
2019-03-09T08:37:34.784Z,15.80
2019-03-09T08:39:09.217Z,14.43
2019-03-09T08:40:43.554Z,15.68
2019-03-09T08:42:17.833Z,17.20
2019-03-09T08:43:52.165Z,15.88
2019-03-09T08:45:26.577Z,13.25
2019-03-09T08:47:00.856Z,15.15
2019-03-09T08:48:35.108Z,18.00
2019-03-09T08:50:12.445Z,15.18
2019-03-09T08:51:46.861Z,15.08
2019-03-09T08:53:21.123Z,21.05
2019-03-09T08:54:55.415Z,15.72
2019-03-09T08:56:29.659Z,18.70
2019-03-09T08:58:04.240Z,12.50
2019-03-09T08:59:38.571Z,11.45
2019-03-09T09:01:12.815Z,15.43
2019-03-09T09:02:47.059Z,9.28
2019-03-09T09:04:21.425Z,11.10
2019-03-09T09:05:55.648Z,12.45
2019-03-09T09:07:29.919Z,8.45
2019-03-09T09:09:05.955Z,9.83
2019-03-09T09:10:40.467Z,6.92
2019-03-09T09:12:14.764Z,6.12
2019-03-09T09:13:49.030Z,7.87
2019-03-09T09:15:23.248Z,6.55
2019-03-09T09:16:57.575Z,6.95
2019-03-09T09:18:31.889Z,6.55
2019-03-09T09:20:09.484Z,6.72
2019-03-09T09:21:43.767Z,6.42
2019-03-09T09:23:18.430Z,5.55
2019-03-09T09:24:52.672Z,5.67
2019-03-09T09:26:26.923Z,5.92
2019-03-09T09:28:01.189Z,5.62
2019-03-09T09:29:35.491Z,5.45
2019-03-09T09:31:09.700Z,5.37
2019-03-09T09:32:44.068Z,5.78
2019-03-09T09:34:18.282Z,6.20
2019-03-09T09:35:52.625Z,5.45
2019-03-09T09:37:26.900Z,5.22
2019-03-09T09:39:01.172Z,5.55
2019-03-09T09:40:35.450Z,4.62
2019-03-09T09:42:09.829Z,4.28
2019-03-09T09:43:44.067Z,5.15
2019-03-09T09:45:18.267Z,3.72
2019-03-09T09:46:52.476Z,4.45
2019-03-09T09:48:26.824Z,6.30
2019-03-09T09:50:01.101Z,4.58
2019-03-09T09:51:35.332Z,4.95
2019-03-09T09:53:09.635Z,4.47
2019-03-09T09:54:44.970Z,5.60
2019-03-09T09:56:19.974Z,4.85
2019-03-09T09:57:55.573Z,5.22
2019-03-09T09:59:29.922Z,4.42
2019-03-09T10:01:06.595Z,5.40
2019-03-09T10:02:42.283Z,5.25
2019-03-09T10:04:16.496Z,4.90
2019-03-09T10:05:51.833Z,5.28
2019-03-09T10:07:30.274Z,4.60
2019-03-09T10:09:06.503Z,4.15
2019-03-09T10:10:42.521Z,5.80
2019-03-09T10:12:19.748Z,6.75
2019-03-09T10:13:56.333Z,5.95
2019-03-09T10:15:35.076Z,6.53
2019-03-09T10:17:10.918Z,6.12
2019-03-09T10:18:46.710Z,7.12
2019-03-09T10:20:25.322Z,5.85
2019-03-09T10:21:59.633Z,3.98
2019-03-09T10:23:35.443Z,4.85
2019-03-09T10:25:11.003Z,7.00
2019-03-09T10:26:48.057Z,6.03
2019-03-09T10:28:24.122Z,5.17
2019-03-09T10:29:58.365Z,5.20
2019-03-09T10:31:32.673Z,4.55
2019-03-09T10:33:08.380Z,4.35
2019-03-09T10:34:42.630Z,4.17
2019-03-09T10:36:18.233Z,5.75
2019-03-09T10:37:52.456Z,4.45
2019-03-09T10:39:26.954Z,5.08
2019-03-09T10:41:01.182Z,3.70
2019-03-09T10:42:35.438Z,5.08
2019-03-09T10:44:09.697Z,4.53
2019-03-09T10:45:44.530Z,4.28
2019-03-09T10:47:18.875Z,4.03
2019-03-09T10:48:53.114Z,4.47
2019-03-09T10:50:28.816Z,4.30
2019-03-09T10:52:03.466Z,4.28
2019-03-09T10:53:37.722Z,4.10
2019-03-09T10:55:14.678Z,4.22
2019-03-09T10:56:49.005Z,4.20
2019-03-09T10:58:23.570Z,5.05
2019-03-09T10:59:57.903Z,4.17
2019-03-09T11:01:32.176Z,4.40
2019-03-09T11:03:06.459Z,4.75
2019-03-09T11:04:41.136Z,4.65
2019-03-09T11:06:15.446Z,4.50
2019-03-09T11:07:49.664Z,4.42
2019-03-09T11:09:23.857Z,4.37
2019-03-09T11:10:58.254Z,5.00
2019-03-09T11:12:33.278Z,4.45
2019-03-09T11:14:07.475Z,6.83
2019-03-09T11:15:41.692Z,6.55
2019-03-09T11:17:16.071Z,10.30
2019-03-09T11:18:51.873Z,4.15
2019-03-09T11:20:26.146Z,3.70
2019-03-09T11:22:00.406Z,3.62
2019-03-09T11:23:35.142Z,3.98
2019-03-09T11:25:10.142Z,4.70
2019-03-09T11:26:44.410Z,4.60
2019-03-09T11:28:20.246Z,5.20
2019-03-09T11:29:54.828Z,3.98
2019-03-09T11:31:30.559Z,7.75
2019-03-09T11:33:07.286Z,4.22
2019-03-09T11:34:41.593Z,4.67
2019-03-09T11:36:17.428Z,5.15
2019-03-09T11:37:51.710Z,4.28
2019-03-09T11:39:25.987Z,4.42
2019-03-09T11:41:00.928Z,5.12
2019-03-09T11:42:35.612Z,5.10
2019-03-09T11:44:10.874Z,5.17
2019-03-09T11:45:45.092Z,4.35
2019-03-09T11:47:20.527Z,3.92
2019-03-09T11:49:00.264Z,4.42
2019-03-09T11:50:34.701Z,5.20
2019-03-09T11:52:16.340Z,4.10
2019-03-09T11:53:44.836Z,6.80
2019-03-09T11:55:19.372Z,4.50
2019-03-09T11:56:53.581Z,7.67
2019-03-09T11:58:27.816Z,3.77
2019-03-09T12:00:02.835Z,5.10
2019-03-09T12:01:37.154Z,5.12
2019-03-09T12:03:11.672Z,5.22
2019-03-09T12:04:47.232Z,5.75
2019-03-09T12:06:21.837Z,4.87
2019-03-09T12:07:56.302Z,5.92
2019-03-09T12:09:30.576Z,6.28
2019-03-09T12:11:04.932Z,3.92
2019-03-09T12:12:39.257Z,3.75
2019-03-09T12:14:13.749Z,3.33
2019-03-09T12:15:47.961Z,3.83
2019-03-09T12:17:22.317Z,5.37
2019-03-09T12:18:56.545Z,4.17
2019-03-09T12:20:32.444Z,4.28
2019-03-09T12:22:06.739Z,3.70
2019-03-09T12:23:40.965Z,4.00
2019-03-09T12:25:16.685Z,5.37
2019-03-09T12:26:53.651Z,4.78
2019-03-09T12:28:27.941Z,4.97
2019-03-09T12:30:03.952Z,5.67
2019-03-09T12:31:38.341Z,3.92
2019-03-09T12:33:12.859Z,5.47
2019-03-09T12:34:47.085Z,4.33
2019-03-09T12:36:21.331Z,4.22
2019-03-09T12:37:56.300Z,3.90
2019-03-09T12:39:31.113Z,4.10
2019-03-09T12:41:05.334Z,4.10
2019-03-09T12:42:39.642Z,4.97
2019-03-09T12:44:13.913Z,4.35
2019-03-09T12:45:50.025Z,4.60
2019-03-09T12:47:24.822Z,4.50
2019-03-09T12:49:00.502Z,4.30
2019-03-09T12:50:34.711Z,3.98
2019-03-09T12:52:16.774Z,4.53
2019-03-09T12:53:51.030Z,4.12
2019-03-09T12:55:25.228Z,4.20
2019-03-09T12:56:59.437Z,5.10
2019-03-09T12:58:34.302Z,3.25
2019-03-09T13:00:19.000Z,5.00
2019-03-09T13:01:53.310Z,4.90
2019-03-09T13:03:29.530Z,4.83
2019-03-09T13:05:04.675Z,4.20
2019-03-09T13:06:38.934Z,3.90
2019-03-09T13:08:13.445Z,4.83
2019-03-09T13:09:47.628Z,3.62
2019-03-09T13:11:22.121Z,4.87
2019-03-09T13:12:56.349Z,5.75
2019-03-09T13:14:30.703Z,5.45
2019-03-09T13:16:05.014Z,5.37
2019-03-09T13:17:39.576Z,6.45
2019-03-09T13:19:13.847Z,6.70
2019-03-09T13:20:49.707Z,5.53
2019-03-09T13:22:24.002Z,5.67
2019-03-09T13:23:58.661Z,6.20
2019-03-09T13:25:32.882Z,4.20
2019-03-09T13:27:07.138Z,5.35
2019-03-09T13:28:41.451Z,4.75
2019-03-09T13:30:24.193Z,5.95
2019-03-09T13:31:58.462Z,5.33
2019-03-09T13:33:32.677Z,4.33
2019-03-09T13:35:07.959Z,4.30
2019-03-09T13:36:42.664Z,3.70
2019-03-09T13:38:16.960Z,3.50
2019-03-09T13:39:51.346Z,4.00
2019-03-09T13:41:25.688Z,4.08
2019-03-09T13:43:00.230Z,4.40
2019-03-09T13:44:34.431Z,4.67
2019-03-09T13:46:08.654Z,3.75
2019-03-09T13:47:42.873Z,3.65
2019-03-09T13:49:17.667Z,4.10
2019-03-09T13:50:51.985Z,4.20
2019-03-09T13:52:26.302Z,4.37
2019-03-09T13:54:01.016Z,4.03
2019-03-09T13:55:35.636Z,4.15
2019-03-09T13:57:09.988Z,4.05
2019-03-09T13:58:44.168Z,4.15
2019-03-09T14:00:19.490Z,4.17
2019-03-09T14:01:54.213Z,4.45
2019-03-09T14:03:28.409Z,4.67
2019-03-09T14:05:02.691Z,5.47
2019-03-09T14:06:36.931Z,6.50
2019-03-09T14:08:11.747Z,5.65
2019-03-09T14:09:45.971Z,7.30
2019-03-09T14:11:20.160Z,4.50
2019-03-09T14:12:54.382Z,5.10
2019-03-09T14:14:28.899Z,5.95
2019-03-09T14:16:03.115Z,6.20
2019-03-09T14:17:37.328Z,5.42
2019-03-09T14:19:11.618Z,6.15
2019-03-09T14:20:48.353Z,9.88
2019-03-09T14:22:23.078Z,7.42
2019-03-09T14:23:57.317Z,10.90
2019-03-09T14:25:31.608Z,8.30
2019-03-09T14:27:06.150Z,10.20
2019-03-09T14:28:40.372Z,10.68
2019-03-09T14:30:19.914Z,13.68
2019-03-09T14:31:54.132Z,13.15
2019-03-09T14:33:29.044Z,7.95
2019-03-09T14:35:04.234Z,9.60
2019-03-09T14:36:38.551Z,9.23
2019-03-09T14:38:12.745Z,7.03
2019-03-09T14:39:47.812Z,8.40
2019-03-09T14:41:22.057Z,7.95
2019-03-09T14:42:56.374Z,7.25
2019-03-09T14:44:30.589Z,5.50
2019-03-09T14:46:04.921Z,7.50
2019-03-09T14:47:39.263Z,8.23
2019-03-09T14:49:13.616Z,9.33
2019-03-09T14:50:49.072Z,9.05
2019-03-09T14:52:23.720Z,15.43
2019-03-09T14:53:57.961Z,7.15
2019-03-09T14:55:32.719Z,8.63
2019-03-09T14:57:07.047Z,9.28
2019-03-09T14:58:41.708Z,8.98
2019-03-09T15:00:21.481Z,8.78
2019-03-09T15:01:55.706Z,10.30
2019-03-09T15:03:29.958Z,7.75
2019-03-09T15:05:05.920Z,7.10
2019-03-09T15:06:40.132Z,8.20
2019-03-09T15:08:14.389Z,8.43
2019-03-09T15:09:48.686Z,10.50
2019-03-09T15:11:23.238Z,10.32
2019-03-09T15:12:57.534Z,10.85
2019-03-09T15:14:31.840Z,9.80
2019-03-09T15:16:06.091Z,11.08
2019-03-09T15:17:40.588Z,20.40
2019-03-09T15:19:14.937Z,33.70
2019-03-09T15:20:50.649Z,33.38
2019-03-09T15:22:24.844Z,30.05
2019-03-09T15:23:59.347Z,35.68
2019-03-09T15:25:33.642Z,21.57
2019-03-09T15:27:08.466Z,69.03
2019-03-09T15:28:42.710Z,27.07
2019-03-09T15:30:21.625Z,13.55
2019-03-09T15:31:55.941Z,15.30
2019-03-09T15:33:30.184Z,16.57
2019-03-09T15:35:06.233Z,14.23
2019-03-09T15:36:40.630Z,11.95
2019-03-09T15:38:15.355Z,23.07
2019-03-09T15:39:49.675Z,20.10
2019-03-09T15:41:23.944Z,20.92
2019-03-09T15:42:58.657Z,15.98
2019-03-09T15:44:32.941Z,13.18
2019-03-09T15:46:07.147Z,16.02
2019-03-09T15:47:41.521Z,14.18
2019-03-09T15:49:16.114Z,12.65
2019-03-09T15:50:50.346Z,16.82
2019-03-09T15:52:24.654Z,22.22
2019-03-09T15:53:58.998Z,27.10
2019-03-09T15:55:33.323Z,24.15
2019-03-09T15:57:07.676Z,17.77
2019-03-09T15:58:42.286Z,19.82
2019-03-09T16:00:21.744Z,19.50
2019-03-09T16:01:56.475Z,13.68
2019-03-09T16:03:30.788Z,10.88
2019-03-09T16:05:08.183Z,23.47
2019-03-09T16:06:42.484Z,28.23
2019-03-09T16:08:16.995Z,30.88
2019-03-09T16:09:51.193Z,28.27
2019-03-09T16:11:25.499Z,27.07
2019-03-09T16:12:59.818Z,22.93
2019-03-09T16:14:34.827Z,22.75
2019-03-09T16:16:09.107Z,21.00
2019-03-09T16:17:43.394Z,18.02
2019-03-09T16:19:19.596Z,14.73
2019-03-09T16:20:53.823Z,18.65
2019-03-09T16:22:28.093Z,12.88
2019-03-09T16:24:02.334Z,13.35
2019-03-09T16:25:36.616Z,10.28
2019-03-09T16:27:11.250Z,9.23
2019-03-09T16:28:45.506Z,10.18
2019-03-09T16:30:23.701Z,24.37
2019-03-09T16:31:58.002Z,29.95
2019-03-09T16:33:32.483Z,34.15
2019-03-09T16:35:08.232Z,30.00
2019-03-09T16:36:42.450Z,26.33
2019-03-09T16:38:16.738Z,13.18
2019-03-09T16:39:51.360Z,11.15
2019-03-09T16:41:25.602Z,13.10
2019-03-09T16:42:59.855Z,11.33
2019-03-09T16:44:34.111Z,13.05
2019-03-09T16:46:08.615Z,13.62
2019-03-09T16:47:42.869Z,13.75
2019-03-09T16:49:17.169Z,13.32
2019-03-09T16:50:51.464Z,17.25
2019-03-09T16:52:26.171Z,18.77
2019-03-09T16:54:00.390Z,16.30
2019-03-09T16:55:34.685Z,16.57
2019-03-09T16:57:08.932Z,30.57
2019-03-09T16:58:43.536Z,23.98
2019-03-09T17:00:21.808Z,25.82
2019-03-09T17:01:56.016Z,16.73
2019-03-09T17:03:30.303Z,15.25
2019-03-09T17:05:06.092Z,14.38
2019-03-09T17:06:40.392Z,16.40
2019-03-09T17:08:14.743Z,10.18
2019-03-09T17:09:49.031Z,9.28
2019-03-09T17:11:23.448Z,32.67
2019-03-09T17:12:57.676Z,28.62
2019-03-09T17:14:31.913Z,23.50
2019-03-09T17:16:06.628Z,46.45
2019-03-09T17:17:41.086Z,24.70
2019-03-09T17:19:15.379Z,27.40
2019-03-09T17:20:51.243Z,30.88
2019-03-09T17:22:32.603Z,32.67
2019-03-09T17:24:01.663Z,31.57
2019-03-09T17:25:35.889Z,32.98
2019-03-09T17:27:10.122Z,36.68
2019-03-09T17:28:44.344Z,46.65
2019-03-09T17:30:20.076Z,45.15
2019-03-09T17:31:54.663Z,39.35
2019-03-09T17:33:28.909Z,42.40
2019-03-09T17:35:03.204Z,41.77
2019-03-09T17:36:37.930Z,39.48
2019-03-09T17:38:12.160Z,51.33
2019-03-09T17:39:46.461Z,49.50
2019-03-09T17:41:20.745Z,45.00
2019-03-09T17:42:55.460Z,62.03
2019-03-09T17:44:29.692Z,80.70
2019-03-09T17:46:04.011Z,152.02
2019-03-09T17:47:38.737Z,131.45
2019-03-09T17:49:13.175Z,137.43
2019-03-09T17:50:47.472Z,124.30
2019-03-09T17:52:21.760Z,119.77
2019-03-09T17:53:56.036Z,120.15
2019-03-09T17:55:30.706Z,127.62
2019-03-09T17:57:05.435Z,171.45
2019-03-09T17:58:39.677Z,187.70
2019-03-09T18:00:25.467Z,97.20
2019-03-09T18:02:00.341Z,87.60
2019-03-09T18:03:35.273Z,94.70
2019-03-09T18:05:11.250Z,81.72
2019-03-09T18:06:45.520Z,32.95
2019-03-09T18:08:20.051Z,41.88
2019-03-09T18:09:54.338Z,50.12
2019-03-09T18:11:28.689Z,47.85
2019-03-09T18:13:03.004Z,49.77
2019-03-09T18:14:37.352Z,54.53
2019-03-09T18:16:11.670Z,61.18
2019-03-09T18:17:47.457Z,55.25
2019-03-09T18:19:21.818Z,28.25
2019-03-09T18:20:56.158Z,21.35
2019-03-09T18:22:30.468Z,20.90
2019-03-09T18:24:04.679Z,12.65
2019-03-09T18:25:39.029Z,20.00
2019-03-09T18:27:13.945Z,10.35
2019-03-09T18:28:48.217Z,14.03
2019-03-09T18:30:22.533Z,13.30
2019-03-09T18:31:56.852Z,11.48
2019-03-09T18:33:31.343Z,11.50
2019-03-09T18:35:07.973Z,11.22
2019-03-09T18:36:42.270Z,11.45
2019-03-09T18:38:16.597Z,12.63
2019-03-09T18:39:50.934Z,13.25
2019-03-09T18:41:25.149Z,15.95
2019-03-09T18:42:59.473Z,30.00
2019-03-09T18:44:33.728Z,31.52
2019-03-09T18:46:08.315Z,35.55
2019-03-09T18:47:42.498Z,34.73
2019-03-09T18:49:20.490Z,57.93
2019-03-09T18:50:54.700Z,37.90
2019-03-09T18:52:29.419Z,45.12
2019-03-09T18:54:03.774Z,49.85
2019-03-09T18:55:39.446Z,44.13
2019-03-09T18:57:13.770Z,46.92
2019-03-09T18:58:48.325Z,36.33
2019-03-09T19:00:23.020Z,48.63
2019-03-09T19:01:57.298Z,36.10
2019-03-09T19:03:31.586Z,29.75
2019-03-09T19:05:06.583Z,26.50
2019-03-09T19:06:40.951Z,15.93
2019-03-09T19:08:15.160Z,18.35
2019-03-09T19:09:49.519Z,22.85
2019-03-09T19:11:24.037Z,13.50
2019-03-09T19:12:58.367Z,18.85
2019-03-09T19:14:32.667Z,18.00
2019-03-09T19:16:06.963Z,19.35
2019-03-09T19:17:44.447Z,16.07
2019-03-09T19:19:18.718Z,12.73
2019-03-09T19:20:53.374Z,14.03
2019-03-09T19:22:27.607Z,15.08
2019-03-09T19:24:02.108Z,18.75
2019-03-09T19:25:36.398Z,19.73
2019-03-09T19:27:10.635Z,18.02
2019-03-09T19:28:44.918Z,22.55
2019-03-09T19:30:21.080Z,17.82
2019-03-09T19:31:55.402Z,13.78
2019-03-09T19:33:29.666Z,19.45
2019-03-09T19:35:04.467Z,16.48
2019-03-09T19:36:39.447Z,16.35
2019-03-09T19:38:13.645Z,15.58
2019-03-09T19:39:47.943Z,12.53
2019-03-09T19:41:22.502Z,11.35
2019-03-09T19:42:57.068Z,11.60
2019-03-09T19:44:31.349Z,11.35
2019-03-09T19:46:05.689Z,12.88
2019-03-09T19:47:39.990Z,12.05
2019-03-09T19:49:14.389Z,11.83
2019-03-09T19:50:48.667Z,14.00
2019-03-09T19:52:23.007Z,13.03
2019-03-09T19:53:57.268Z,17.85
2019-03-09T19:55:31.997Z,20.88
2019-03-09T19:57:06.322Z,15.63
2019-03-09T19:58:40.626Z,14.87
2019-03-09T20:00:16.489Z,15.00
2019-03-09T20:01:51.329Z,15.00
2019-03-09T20:03:25.620Z,21.87
2019-03-09T20:04:59.850Z,16.20
2019-03-09T20:06:34.196Z,40.17
2019-03-09T20:08:08.953Z,32.23
2019-03-09T20:09:43.184Z,13.88
2019-03-09T20:11:17.491Z,12.00
2019-03-09T20:12:51.785Z,11.90
2019-03-09T20:14:26.404Z,11.53
2019-03-09T20:16:00.640Z,11.90
2019-03-09T20:17:34.892Z,12.35
2019-03-09T20:19:09.133Z,12.40
2019-03-09T20:20:43.662Z,11.50
2019-03-09T20:22:17.899Z,12.82
2019-03-09T20:23:52.114Z,12.23
2019-03-09T20:25:28.408Z,11.25
2019-03-09T20:27:02.740Z,11.15
2019-03-09T20:28:37.030Z,10.03
2019-03-09T20:30:19.347Z,10.20
2019-03-09T20:31:53.578Z,12.15
2019-03-09T20:33:28.106Z,12.40